sensor_id;sensor_type;location;lat;lon;timestamp;pressure;altitude;pressure_sealevel;temperature;humidity
6144;BME280;3103;49.492;8.474;2023-12-20T00:02:11;100594.84;;;6.71;100.00
6144;BME280;3103;49.492;8.474;2023-12-20T00:04:37;100589.72;;;6.69;100.00
6144;BME280;3103;49.492;8.474;2023-12-20T00:07:04;100585.97;;;6.83;100.00
6144;BME280;3103;49.492;8.474;2023-12-20T00:09:31;100586.63;;;6.72;100.00
6144;BME280;3103;49.492;8.474;2023-12-20T00:11:58;100583.69;;;6.94;100.00
6144;BME280;3103;49.492;8.474;2023-12-20T00:14:24;100578.59;;;6.79;100.00
6144;BME280;3103;49.492;8.474;2023-12-20T00:16:51;100574.44;;;6.90;100.00
6144;BME280;3103;49.492;8.474;2023-12-20T00:19:18;100578.34;;;6.87;100.00
6144;BME280;3103;49.492;8.474;2023-12-20T00:21:45;100583.75;;;6.80;100.00
6144;BME280;3103;49.492;8.474;2023-12-20T00:24:12;100579.22;;;6.74;100.00
6144;BME280;3103;49.492;8.474;2023-12-20T00:26:39;100583.75;;;6.74;100.00
6144;BME280;3103;49.492;8.474;2023-12-20T00:29:06;100579.66;;;6.71;100.00
6144;BME280;3103;49.492;8.474;2023-12-20T00:31:32;100577.59;;;6.73;100.00
6144;BME280;3103;49.492;8.474;2023-12-20T00:33:59;100577.84;;;6.65;100.00
6144;BME280;3103;49.492;8.474;2023-12-20T00:36:26;100571.47;;;6.60;100.00
6144;BME280;3103;49.492;8.474;2023-12-20T00:38:53;100576.38;;;6.69;100.00
6144;BME280;3103;49.492;8.474;2023-12-20T00:41:20;100583.19;;;6.65;100.00
6144;BME280;3103;49.492;8.474;2023-12-20T00:43:47;100575.00;;;6.53;100.00
6144;BME280;3103;49.492;8.474;2023-12-20T00:46:13;100566.72;;;6.68;100.00
6144;BME280;3103;49.492;8.474;2023-12-20T00:48:40;100567.72;;;6.74;100.00
6144;BME280;3103;49.492;8.474;2023-12-20T00:51:08;100575.34;;;6.70;100.00
6144;BME280;3103;49.492;8.474;2023-12-20T00:53:35;100569.56;;;6.80;100.00
6144;BME280;3103;49.492;8.474;2023-12-20T00:56:02;100562.16;;;6.75;100.00
6144;BME280;3103;49.492;8.474;2023-12-20T00:58:29;100555.28;;;6.54;100.00
6144;BME280;3103;49.492;8.474;2023-12-20T01:00:56;100565.53;;;6.58;100.00
6144;BME280;3103;49.492;8.474;2023-12-20T01:03:24;100556.00;;;6.81;100.00
6144;BME280;3103;49.492;8.474;2023-12-20T01:05:51;100555.66;;;6.65;100.00
6144;BME280;3103;49.492;8.474;2023-12-20T01:08:18;100558.28;;;6.78;100.00
6144;BME280;3103;49.492;8.474;2023-12-20T01:10:45;100566.25;;;6.84;100.00
6144;BME280;3103;49.492;8.474;2023-12-20T01:13:30;100559.31;;;6.70;100.00
6144;BME280;3103;49.492;8.474;2023-12-20T01:15:56;100550.91;;;6.67;100.00
6144;BME280;3103;49.492;8.474;2023-12-20T01:18:23;100553.34;;;6.75;100.00
6144;BME280;3103;49.492;8.474;2023-12-20T01:20:50;100544.50;;;6.74;100.00
6144;BME280;3103;49.492;8.474;2023-12-20T01:23:17;100548.25;;;6.60;100.00
6144;BME280;3103;49.492;8.474;2023-12-20T01:25:44;100543.72;;;6.67;100.00
6144;BME280;3103;49.492;8.474;2023-12-20T01:28:10;100544.13;;;6.71;100.00
6144;BME280;3103;49.492;8.474;2023-12-20T01:30:37;100538.41;;;6.61;100.00
6144;BME280;3103;49.492;8.474;2023-12-20T01:33:04;100541.28;;;6.59;100.00
6144;BME280;3103;49.492;8.474;2023-12-20T01:35:31;100538.00;;;6.64;100.00
6144;BME280;3103;49.492;8.474;2023-12-20T01:37:58;100548.13;;;6.48;100.00
6144;BME280;3103;49.492;8.474;2023-12-20T01:40:25;100551.31;;;6.77;100.00
6144;BME280;3103;49.492;8.474;2023-12-20T01:43:04;100559.75;;;6.61;100.00
6144;BME280;3103;49.492;8.474;2023-12-20T01:45:32;100551.97;;;6.59;100.00
6144;BME280;3103;49.492;8.474;2023-12-20T01:47:59;100557.47;;;6.71;100.00
6144;BME280;3103;49.492;8.474;2023-12-20T01:50:27;100555.66;;;6.65;100.00
6144;BME280;3103;49.492;8.474;2023-12-20T01:52:55;100549.25;;;6.72;100.00
6144;BME280;3103;49.492;8.474;2023-12-20T01:55:25;100549.84;;;6.74;100.00
6144;BME280;3103;49.492;8.474;2023-12-20T01:57:52;100548.81;;;6.75;100.00
6144;BME280;3103;49.492;8.474;2023-12-20T02:00:19;100540.00;;;6.75;100.00
6144;BME280;3103;49.492;8.474;2023-12-20T02:02:50;100545.75;;;6.72;100.00
6144;BME280;3103;49.492;8.474;2023-12-20T02:05:20;100546.00;;;6.64;100.00
6144;BME280;3103;49.492;8.474;2023-12-20T02:07:47;100556.91;;;6.55;100.00
6144;BME280;3103;49.492;8.474;2023-12-20T02:10:15;100556.28;;;6.60;100.00
6144;BME280;3103;49.492;8.474;2023-12-20T02:12:44;100562.88;;;6.51;100.00
6144;BME280;3103;49.492;8.474;2023-12-20T02:15:12;100563.84;;;6.70;100.00
6144;BME280;3103;49.492;8.474;2023-12-20T02:17:39;100543.94;;;6.66;100.00
6144;BME280;3103;49.492;8.474;2023-12-20T02:20:07;100550.75;;;6.62;100.00
6144;BME280;3103;49.492;8.474;2023-12-20T02:22:34;100551.13;;;6.65;100.00
6144;BME280;3103;49.492;8.474;2023-12-20T02:25:01;100551.13;;;6.59;100.00
6144;BME280;3103;49.492;8.474;2023-12-20T02:27:29;100541.13;;;6.41;100.00
6144;BME280;3103;49.492;8.474;2023-12-20T02:29:57;100536.44;;;6.36;100.00
6144;BME280;3103;49.492;8.474;2023-12-20T02:32:24;100544.41;;;6.43;100.00
6144;BME280;3103;49.492;8.474;2023-12-20T02:34:55;100553.28;;;6.37;100.00
6144;BME280;3103;49.492;8.474;2023-12-20T02:37:23;100548.53;;;6.32;100.00
6144;BME280;3103;49.492;8.474;2023-12-20T02:39:50;100551.59;;;6.42;100.00
6144;BME280;3103;49.492;8.474;2023-12-20T02:42:17;100553.66;;;6.40;100.00
6144;BME280;3103;49.492;8.474;2023-12-20T02:44:44;100538.91;;;6.38;100.00
6144;BME280;3103;49.492;8.474;2023-12-20T02:47:11;100529.03;;;6.38;100.00
6144;BME280;3103;49.492;8.474;2023-12-20T02:49:37;100528.63;;;6.48;100.00
6144;BME280;3103;49.492;8.474;2023-12-20T02:52:04;100527.78;;;6.41;100.00
6144;BME280;3103;49.492;8.474;2023-12-20T02:54:31;100533.91;;;6.54;100.00
6144;BME280;3103;49.492;8.474;2023-12-20T02:56:58;100536.38;;;6.56;100.00
6144;BME280;3103;49.492;8.474;2023-12-20T02:59:25;100537.63;;;6.53;100.00
6144;BME280;3103;49.492;8.474;2023-12-20T03:01:52;100535.59;;;6.49;100.00
6144;BME280;3103;49.492;8.474;2023-12-20T03:04:19;100544.78;;;6.60;100.00
6144;BME280;3103;49.492;8.474;2023-12-20T03:06:46;100540.06;;;6.62;100.00
6144;BME280;3103;49.492;8.474;2023-12-20T03:09:12;100538.59;;;6.59;100.00
6144;BME280;3103;49.492;8.474;2023-12-20T03:11:40;100535.56;;;6.55;100.00
6144;BME280;3103;49.492;8.474;2023-12-20T03:14:06;100538.84;;;6.51;100.00
6144;BME280;3103;49.492;8.474;2023-12-20T03:16:33;100538.25;;;6.42;100.00
6144;BME280;3103;49.492;8.474;2023-12-20T03:19:02;100548.25;;;6.67;100.00
6144;BME280;3103;49.492;8.474;2023-12-20T03:21:29;100546.06;;;6.44;100.00
6144;BME280;3103;49.492;8.474;2023-12-20T03:23:56;100548.91;;;6.55;100.00
6144;BME280;3103;49.492;8.474;2023-12-20T03:26:23;100554.03;;;6.64;100.00
6144;BME280;3103;49.492;8.474;2023-12-20T03:28:50;100568.34;;;6.76;100.00
6144;BME280;3103;49.492;8.474;2023-12-20T03:31:16;100569.75;;;6.85;100.00
6144;BME280;3103;49.492;8.474;2023-12-20T03:33:43;100560.59;;;6.54;100.00
6144;BME280;3103;49.492;8.474;2023-12-20T03:36:10;100558.06;;;6.73;100.00
6144;BME280;3103;49.492;8.474;2023-12-20T03:38:37;100550.34;;;6.51;100.00
6144;BME280;3103;49.492;8.474;2023-12-20T03:41:04;100549.97;;;6.41;100.00
6144;BME280;3103;49.492;8.474;2023-12-20T03:43:31;100550.41;;;6.25;100.00
6144;BME280;3103;49.492;8.474;2023-12-20T03:45:58;100556.94;;;6.49;100.00
6144;BME280;3103;49.492;8.474;2023-12-20T03:48:26;100542.97;;;6.53;100.00
6144;BME280;3103;49.492;8.474;2023-12-20T03:50:53;100546.41;;;6.61;100.00
6144;BME280;3103;49.492;8.474;2023-12-20T03:53:20;100544.00;;;6.52;100.00
6144;BME280;3103;49.492;8.474;2023-12-20T03:55:46;100552.78;;;6.60;100.00
6144;BME280;3103;49.492;8.474;2023-12-20T03:58:13;100553.19;;;6.57;100.00
6144;BME280;3103;49.492;8.474;2023-12-20T04:00:40;100552.78;;;6.60;100.00
6144;BME280;3103;49.492;8.474;2023-12-20T04:03:07;100558.41;;;6.90;100.00
6144;BME280;3103;49.492;8.474;2023-12-20T04:05:34;100563.47;;;7.11;100.00
6144;BME280;3103;49.492;8.474;2023-12-20T04:08:01;100562.03;;;7.08;100.00
6144;BME280;3103;49.492;8.474;2023-12-20T04:10:29;100568.03;;;7.04;100.00
6144;BME280;3103;49.492;8.474;2023-12-20T04:12:55;100568.03;;;7.04;100.00
6144;BME280;3103;49.492;8.474;2023-12-20T04:15:23;100572.97;;;7.00;100.00
6144;BME280;3103;49.492;8.474;2023-12-20T04:17:49;100572.56;;;6.97;100.00
6144;BME280;3103;49.492;8.474;2023-12-20T04:20:16;100565.66;;;6.82;100.00
6144;BME280;3103;49.492;8.474;2023-12-20T04:22:43;100572.25;;;6.80;100.00
6144;BME280;3103;49.492;8.474;2023-12-20T04:25:10;100571.84;;;6.76;100.00
6144;BME280;3103;49.492;8.474;2023-12-20T04:27:37;100580.22;;;6.87;100.00
6144;BME280;3103;49.492;8.474;2023-12-20T04:30:04;100578.56;;;6.85;100.00
6144;BME280;3103;49.492;8.474;2023-12-20T04:32:32;100585.41;;;6.68;100.00
6144;BME280;3103;49.492;8.474;2023-12-20T04:34:58;100584.38;;;6.69;100.00
6144;BME280;3103;49.492;8.474;2023-12-20T04:37:25;100595.41;;;6.86;100.00
6144;BME280;3103;49.492;8.474;2023-12-20T04:39:52;100590.75;;;6.68;100.00
6144;BME280;3103;49.492;8.474;2023-12-20T04:42:19;100601.63;;;6.73;100.00
6144;BME280;3103;49.492;8.474;2023-12-20T04:44:46;100598.34;;;6.78;100.00
6144;BME280;3103;49.492;8.474;2023-12-20T04:47:12;100599.94;;;6.85;100.00
6144;BME280;3103;49.492;8.474;2023-12-20T04:49:39;100595.78;;;6.96;100.00
6144;BME280;3103;49.492;8.474;2023-12-20T04:52:06;100595.06;;;6.76;100.00
6144;BME280;3103;49.492;8.474;2023-12-20T04:54:33;100598.66;;;7.01;100.00
6144;BME280;3103;49.492;8.474;2023-12-20T04:57:00;100603.38;;;6.99;100.00
6144;BME280;3103;49.492;8.474;2023-12-20T04:59:26;100613.19;;;7.12;100.00
6144;BME280;3103;49.492;8.474;2023-12-20T05:01:53;100621.25;;;7.05;100.00
6144;BME280;3103;49.492;8.474;2023-12-20T05:04:20;100613.25;;;7.05;100.00
6144;BME280;3103;49.492;8.474;2023-12-20T05:06:47;100617.94;;;7.03;100.00
6144;BME280;3103;49.492;8.474;2023-12-20T05:09:14;100627.38;;;7.12;100.00
6144;BME280;3103;49.492;8.474;2023-12-20T05:11:41;100623.72;;;7.00;100.00
6144;BME280;3103;49.492;8.474;2023-12-20T05:14:08;100624.31;;;7.09;100.00
6144;BME280;3103;49.492;8.474;2023-12-20T05:16:34;100632.75;;;6.99;100.00
6144;BME280;3103;49.492;8.474;2023-12-20T05:19:02;100625.81;;;6.92;100.00
6144;BME280;3103;49.492;8.474;2023-12-20T05:21:33;100631.38;;;6.83;100.00
6144;BME280;3103;49.492;8.474;2023-12-20T05:24:00;100628.50;;;6.92;100.00
6144;BME280;3103;49.492;8.474;2023-12-20T05:26:27;100637.31;;;6.92;100.00
6144;BME280;3103;49.492;8.474;2023-12-20T05:28:56;100644.44;;;7.11;100.00
6144;BME280;3103;49.492;8.474;2023-12-20T05:31:23;100637.53;;;6.91;100.00
6144;BME280;3103;49.492;8.474;2023-12-20T05:33:50;100634.19;;;7.08;100.00
6144;BME280;3103;49.492;8.474;2023-12-20T05:36:18;100642.03;;;6.97;100.00
6144;BME280;3103;49.492;8.474;2023-12-20T05:38:45;100640.81;;;6.86;100.00
6144;BME280;3103;49.492;8.474;2023-12-20T05:41:11;100643.88;;;6.96;100.00
6144;BME280;3103;49.492;8.474;2023-12-20T05:43:38;100651.28;;;6.94;100.00
6144;BME280;3103;49.492;8.474;2023-12-20T05:46:05;100658.63;;;7.19;100.00
6144;BME280;3103;49.492;8.474;2023-12-20T05:48:32;100666.63;;;7.12;100.00
6144;BME280;3103;49.492;8.474;2023-12-20T05:50:59;100673.09;;;6.84;100.00
6144;BME280;3103;49.492;8.474;2023-12-20T05:53:25;100680.03;;;7.05;100.00
6144;BME280;3103;49.492;8.474;2023-12-20T05:55:52;100689.69;;;7.06;100.00
6144;BME280;3103;49.492;8.474;2023-12-20T05:58:19;100697.91;;;7.05;100.00
6144;BME280;3103;49.492;8.474;2023-12-20T06:00:46;100709.81;;;7.02;100.00
6144;BME280;3103;49.492;8.474;2023-12-20T06:03:13;100695.50;;;7.41;100.00
6144;BME280;3103;49.492;8.474;2023-12-20T06:05:39;100703.63;;;7.60;98.17
6144;BME280;3103;49.492;8.474;2023-12-20T06:08:06;100714.72;;;7.19;99.97
6144;BME280;3103;49.492;8.474;2023-12-20T06:10:33;100716.56;;;7.25;100.00
6144;BME280;3103;49.492;8.474;2023-12-20T06:13:00;100720.47;;;7.22;100.00
6144;BME280;3103;49.492;8.474;2023-12-20T06:15:27;100727.41;;;7.36;99.71
6144;BME280;3103;49.492;8.474;2023-12-20T06:17:54;100721.28;;;7.16;100.00
6144;BME280;3103;49.492;8.474;2023-12-20T06:20:21;100728.09;;;7.19;100.00
6144;BME280;3103;49.492;8.474;2023-12-20T06:22:48;100730.53;;;7.27;100.00
6144;BME280;3103;49.492;8.474;2023-12-20T06:25:16;100718.78;;;7.28;99.89
6144;BME280;3103;49.492;8.474;2023-12-20T06:27:43;100717.72;;;7.42;97.99
6144;BME280;3103;49.492;8.474;2023-12-20T06:30:10;100709.81;;;7.02;99.23
6144;BME280;3103;49.492;8.474;2023-12-20T06:32:37;100710.91;;;6.81;100.00
6144;BME280;3103;49.492;8.474;2023-12-20T06:35:05;100710.63;;;7.09;99.93
6144;BME280;3103;49.492;8.474;2023-12-20T06:37:32;100712.06;;;7.12;98.49
6144;BME280;3103;49.492;8.474;2023-12-20T06:39:59;100721.94;;;7.11;97.05
6144;BME280;3103;49.492;8.474;2023-12-20T06:42:29;100724.00;;;7.09;96.32
6144;BME280;3103;49.492;8.474;2023-12-20T06:45:00;100722.56;;;7.07;94.00
6144;BME280;3103;49.492;8.474;2023-12-20T06:47:30;100721.75;;;7.00;94.52
6144;BME280;3103;49.492;8.474;2023-12-20T06:49:56;100720.34;;;6.84;95.60
6144;BME280;3103;49.492;8.474;2023-12-20T06:52:23;100727.94;;;6.94;94.33
6144;BME280;3103;49.492;8.474;2023-12-20T06:54:50;100722.59;;;6.87;94.30
6144;BME280;3103;49.492;8.474;2023-12-20T06:57:17;100724.03;;;6.83;94.58
6144;BME280;3103;49.492;8.474;2023-12-20T06:59:45;100734.09;;;6.88;94.45
6144;BME280;3103;49.492;8.474;2023-12-20T07:02:12;100730.00;;;6.92;93.93
6144;BME280;3103;49.492;8.474;2023-12-20T07:04:41;100727.88;;;7.13;90.63
6144;BME280;3103;49.492;8.474;2023-12-20T07:07:08;100728.09;;;7.12;88.90
6144;BME280;3103;49.492;8.474;2023-12-20T07:09:35;100723.38;;;7.07;88.49
6144;BME280;3103;49.492;8.474;2023-12-20T07:12:02;100724.00;;;7.09;87.33
6144;BME280;3103;49.492;8.474;2023-12-20T07:14:29;100730.16;;;7.03;87.63
6144;BME280;3103;49.492;8.474;2023-12-20T07:16:56;100724.22;;;7.01;87.95
6144;BME280;3103;49.492;8.474;2023-12-20T07:19:23;100742.09;;;7.01;87.43
6144;BME280;3103;49.492;8.474;2023-12-20T07:21:50;100734.50;;;7.04;86.73
6144;BME280;3103;49.492;8.474;2023-12-20T07:24:17;100733.03;;;7.02;86.33
6144;BME280;3103;49.492;8.474;2023-12-20T07:26:44;100731.84;;;6.84;87.12
6144;BME280;3103;49.492;8.474;2023-12-20T07:29:11;100741.50;;;6.92;86.47
6144;BME280;3103;49.492;8.474;2023-12-20T07:31:38;100733.88;;;6.96;86.22
6144;BME280;3103;49.492;8.474;2023-12-20T07:34:05;100729.78;;;6.87;86.10
6144;BME280;3103;49.492;8.474;2023-12-20T07:36:32;100739.88;;;6.91;85.69
6144;BME280;3103;49.492;8.474;2023-12-20T07:38:59;100753.00;;;6.86;86.25
6144;BME280;3103;49.492;8.474;2023-12-20T07:41:27;100751.97;;;6.87;86.77
6144;BME280;3103;49.492;8.474;2023-12-20T07:43:54;100757.31;;;6.94;86.30
6144;BME280;3103;49.492;8.474;2023-12-20T07:46:21;100761.44;;;6.76;86.45
6144;BME280;3103;49.492;8.474;2023-12-20T07:48:50;100764.50;;;6.87;86.79
6144;BME280;3103;49.492;8.474;2023-12-20T07:51:17;100772.75;;;6.78;86.68
6144;BME280;3103;49.492;8.474;2023-12-20T07:53:44;100767.78;;;6.95;85.74
6144;BME280;3103;49.492;8.474;2023-12-20T07:56:20;100777.44;;;6.96;85.86
6144;BME280;3103;49.492;8.474;2023-12-20T07:58:47;100774.97;;;7.01;84.76
6144;BME280;3103;49.492;8.474;2023-12-20T08:01:19;100773.75;;;6.97;84.70
6144;BME280;3103;49.492;8.474;2023-12-20T08:03:48;100772.72;;;6.98;85.27
6144;BME280;3103;49.492;8.474;2023-12-20T08:06:15;100776.81;;;7.01;85.64
6144;BME280;3103;49.492;8.474;2023-12-20T08:08:44;100776.00;;;7.07;84.85
6144;BME280;3103;49.492;8.474;2023-12-20T08:11:11;100779.50;;;7.01;84.22
6144;BME280;3103;49.492;8.474;2023-12-20T08:13:38;100784.84;;;6.94;86.14
6144;BME280;3103;49.492;8.474;2023-12-20T08:16:05;100794.50;;;7.08;85.03
6144;BME280;3103;49.492;8.474;2023-12-20T08:18:34;100789.56;;;7.05;86.14
6144;BME280;3103;49.492;8.474;2023-12-20T08:21:01;100777.63;;;7.14;84.02
6144;BME280;3103;49.492;8.474;2023-12-20T08:23:28;100778.47;;;7.02;84.57
6144;BME280;3103;49.492;8.474;2023-12-20T08:25:58;100781.97;;;6.96;84.46
6144;BME280;3103;49.492;8.474;2023-12-20T08:28:29;100785.25;;;6.84;85.13
6144;BME280;3103;49.492;8.474;2023-12-20T08:30:58;100797.19;;;6.95;85.45
6144;BME280;3103;49.492;8.474;2023-12-20T08:33:25;100799.22;;;7.06;84.38
6144;BME280;3103;49.492;8.474;2023-12-20T08:35:52;100785.25;;;7.11;83.10
6144;BME280;3103;49.492;8.474;2023-12-20T08:38:19;100780.09;;;7.23;82.09
6144;BME280;3103;49.492;8.474;2023-12-20T08:40:46;100784.00;;;7.20;81.64
6144;BME280;3103;49.492;8.474;2023-12-20T08:43:13;100790.13;;;7.27;81.71
6144;BME280;3103;49.492;8.474;2023-12-20T08:45:40;100782.38;;;7.06;82.24
6144;BME280;3103;49.492;8.474;2023-12-20T08:48:07;100781.94;;;7.15;82.25
6144;BME280;3103;49.492;8.474;2023-12-20T08:50:35;100777.84;;;7.20;81.10
6144;BME280;3103;49.492;8.474;2023-12-20T08:53:03;100783.16;;;7.33;80.78
6144;BME280;3103;49.492;8.474;2023-12-20T08:55:30;100779.88;;;7.18;81.70
6144;BME280;3103;49.492;8.474;2023-12-20T08:57:58;100783.16;;;7.33;81.14
6144;BME280;3103;49.492;8.474;2023-12-20T09:00:25;100791.16;;;7.26;80.90
6144;BME280;3103;49.492;8.474;2023-12-20T09:02:54;100795.91;;;7.24;80.70
6144;BME280;3103;49.492;8.474;2023-12-20T09:05:21;100797.97;;;7.22;81.10
6144;BME280;3103;49.492;8.474;2023-12-20T09:07:49;100794.91;;;7.19;81.06
6144;BME280;3103;49.492;8.474;2023-12-20T09:10:16;100788.03;;;7.42;80.78
6144;BME280;3103;49.492;8.474;2023-12-20T09:12:52;100795.66;;;7.39;81.40
6144;BME280;3103;49.492;8.474;2023-12-20T09:15:24;100792.97;;;7.45;81.43
6144;BME280;3103;49.492;8.474;2023-12-20T09:17:53;100799.19;;;7.33;81.28
6144;BME280;3103;49.492;8.474;2023-12-20T09:20:20;100788.88;;;7.30;80.95
6144;BME280;3103;49.492;8.474;2023-12-20T09:22:47;100796.69;;;7.38;80.59
6144;BME280;3103;49.492;8.474;2023-12-20T09:25:14;100793.41;;;7.36;81.29
6144;BME280;3103;49.492;8.474;2023-12-20T09:27:42;100808.03;;;7.27;80.67
6144;BME280;3103;49.492;8.474;2023-12-20T09:30:09;100804.09;;;7.36;81.24
6144;BME280;3103;49.492;8.474;2023-12-20T09:32:36;100807.19;;;7.46;81.29
6144;BME280;3103;49.492;8.474;2023-12-20T09:35:03;100808.44;;;7.24;81.27
6144;BME280;3103;49.492;8.474;2023-12-20T09:37:32;100812.34;;;7.34;80.94
6144;BME280;3103;49.492;8.474;2023-12-20T09:39:59;100806.16;;;7.47;80.66
6144;BME280;3103;49.492;8.474;2023-12-20T09:45:08;100818.28;;;7.36;81.23
6144;BME280;3103;49.492;8.474;2023-12-20T09:47:35;100812.53;;;7.39;81.10
6144;BME280;3103;49.492;8.474;2023-12-20T09:50:02;100815.59;;;7.43;81.42
6144;BME280;3103;49.492;8.474;2023-12-20T09:52:31;100804.88;;;7.56;80.66
6144;BME280;3103;49.492;8.474;2023-12-20T09:54:59;100801.53;;;7.67;80.52
6144;BME280;3103;49.492;8.474;2023-12-20T09:57:29;100811.63;;;7.65;80.52
6144;BME280;3103;49.492;8.474;2023-12-20T09:59:56;100816.84;;;7.47;81.31
6144;BME280;3103;49.492;8.474;2023-12-20T10:02:25;100813.31;;;7.53;81.43
6144;BME280;3103;49.492;8.474;2023-12-20T10:04:54;100807.72;;;7.68;81.48
6144;BME280;3103;49.492;8.474;2023-12-20T10:07:21;100813.50;;;7.58;81.48
6144;BME280;3103;49.492;8.474;2023-12-20T10:09:51;100806.75;;;7.49;81.25
6144;BME280;3103;49.492;8.474;2023-12-20T10:12:21;100804.00;;;7.69;80.96
6144;BME280;3103;49.492;8.474;2023-12-20T10:14:47;100810.16;;;7.69;81.04
6144;BME280;3103;49.492;8.474;2023-12-20T10:17:14;100804.25;;;7.61;80.50
6144;BME280;3103;49.492;8.474;2023-12-20T10:19:42;100799.91;;;7.66;80.74
6144;BME280;3103;49.492;8.474;2023-12-20T10:22:10;100791.91;;;7.53;80.79
6144;BME280;3103;49.492;8.474;2023-12-20T10:24:36;100789.38;;;7.78;80.35
6144;BME280;3103;49.492;8.474;2023-12-20T10:27:08;100793.75;;;7.59;79.43
6144;BME280;3103;49.492;8.474;2023-12-20T10:29:35;100782.09;;;7.47;79.04
6144;BME280;3103;49.492;8.474;2023-12-20T10:32:24;100795.19;;;7.55;79.36
6144;BME280;3103;49.492;8.474;2023-12-20T10:34:52;100795.63;;;7.52;79.45
6144;BME280;3103;49.492;8.474;2023-12-20T10:37:20;100791.50;;;7.63;79.63
6144;BME280;3103;49.492;8.474;2023-12-20T10:39:52;100788.38;;;7.59;78.81
6144;BME280;3103;49.492;8.474;2023-12-20T10:42:22;100794.78;;;7.58;77.94
6144;BME280;3103;49.492;8.474;2023-12-20T10:44:50;100799.91;;;7.60;78.57
6144;BME280;3103;49.492;8.474;2023-12-20T10:47:18;100791.06;;;7.66;78.49
6144;BME280;3103;49.492;8.474;2023-12-20T10:49:46;100790.63;;;7.69;78.23
6144;BME280;3103;49.492;8.474;2023-12-20T10:52:13;100798.69;;;7.62;79.20
6144;BME280;3103;49.492;8.474;2023-12-20T10:54:40;100796.81;;;7.69;79.16
6144;BME280;3103;49.492;8.474;2023-12-20T10:57:07;100800.47;;;7.82;79.44
6144;BME280;3103;49.492;8.474;2023-12-20T10:59:37;100784.44;;;7.75;79.53
6144;BME280;3103;49.492;8.474;2023-12-20T11:02:04;100786.34;;;7.61;79.01
6144;BME280;3103;49.492;8.474;2023-12-20T11:04:47;100783.91;;;7.53;78.36
6144;BME280;3103;49.492;8.474;2023-12-20T11:07:39;100774.66;;;7.42;78.90
6144;BME280;3103;49.492;8.474;2023-12-20T11:10:20;100769.50;;;7.54;79.26
6144;BME280;3103;49.492;8.474;2023-12-20T11:15:28;100769.50;;;7.61;78.42
6144;BME280;3103;49.492;8.474;2023-12-20T11:17:56;100765.75;;;7.68;78.64
6144;BME280;3103;49.492;8.474;2023-12-20T11:20:24;100759.78;;;7.66;78.66
6144;BME280;3103;49.492;8.474;2023-12-20T11:23:01;100757.97;;;7.60;79.16
6144;BME280;3103;49.492;8.474;2023-12-20T11:25:28;100766.81;;;7.61;79.86
6144;BME280;3103;49.492;8.474;2023-12-20T11:28:12;100756.50;;;7.64;79.66
6144;BME280;3103;49.492;8.474;2023-12-20T11:30:50;100751.31;;;7.76;80.17
6144;BME280;3103;49.492;8.474;2023-12-20T11:33:25;100743.75;;;7.66;79.27
6144;BME280;3103;49.492;8.474;2023-12-20T11:35:57;100754.00;;;7.69;78.95
6144;BME280;3103;49.492;8.474;2023-12-20T11:38:24;100750.38;;;7.51;80.18
6144;BME280;3103;49.492;8.474;2023-12-20T11:40:53;100755.47;;;7.65;79.41
6144;BME280;3103;49.492;8.474;2023-12-20T11:43:36;100755.31;;;7.60;80.18
6144;BME280;3103;49.492;8.474;2023-12-20T11:46:05;100757.16;;;7.53;80.93
6144;BME280;3103;49.492;8.474;2023-12-20T11:48:34;100761.22;;;7.69;80.67
6144;BME280;3103;49.492;8.474;2023-12-20T11:51:01;100753.78;;;7.78;80.14
6144;BME280;3103;49.492;8.474;2023-12-20T11:53:30;100752.47;;;7.87;79.82
6144;BME280;3103;49.492;8.474;2023-12-20T11:56:00;100758.09;;;7.79;79.78
6144;BME280;3103;49.492;8.474;2023-12-20T11:58:29;100759.56;;;7.74;79.56
6144;BME280;3103;49.492;8.474;2023-12-20T12:00:57;100764.50;;;7.71;79.67
6144;BME280;3103;49.492;8.474;2023-12-20T12:03:24;100767.16;;;7.78;80.46
6144;BME280;3103;49.492;8.474;2023-12-20T12:05:51;100757.06;;;7.73;80.06
6144;BME280;3103;49.492;8.474;2023-12-20T12:08:18;100757.06;;;7.80;79.74
6144;BME280;3103;49.492;8.474;2023-12-20T12:10:45;100754.38;;;7.80;79.79
6144;BME280;3103;49.492;8.474;2023-12-20T12:13:12;100744.22;;;7.50;79.76
6144;BME280;3103;49.492;8.474;2023-12-20T12:15:41;100760.00;;;7.58;79.83
6144;BME280;3103;49.492;8.474;2023-12-20T12:18:08;100757.59;;;7.50;79.52
6144;BME280;3103;49.492;8.474;2023-12-20T12:20:37;100750.94;;;7.59;78.27
6144;BME280;3103;49.492;8.474;2023-12-20T12:23:05;100743.41;;;7.43;78.57
6144;BME280;3103;49.492;8.474;2023-12-20T12:25:35;100737.84;;;7.44;78.51
6144;BME280;3103;49.492;8.474;2023-12-20T12:28:08;100735.00;;;7.46;79.16
6144;BME280;3103;49.492;8.474;2023-12-20T12:30:35;100741.78;;;7.42;78.93
6144;BME280;3103;49.492;8.474;2023-12-20T12:33:12;100743.25;;;7.31;78.12
6144;BME280;3103;49.492;8.474;2023-12-20T12:35:40;100744.00;;;7.45;78.22
6144;BME280;3103;49.492;8.474;2023-12-20T12:38:07;100747.06;;;7.55;77.65
6144;BME280;3103;49.492;8.474;2023-12-20T12:40:35;100741.06;;;7.60;76.76
6144;BME280;3103;49.492;8.474;2023-12-20T12:43:03;100749.09;;;7.66;75.90
6144;BME280;3103;49.492;8.474;2023-12-20T12:45:31;100746.25;;;7.61;76.50
6144;BME280;3103;49.492;8.474;2023-12-20T12:47:59;100749.53;;;7.63;74.88
6144;BME280;3103;49.492;8.474;2023-12-20T12:50:26;100748.28;;;7.59;75.52
6144;BME280;3103;49.492;8.474;2023-12-20T12:52:55;100740.50;;;7.51;75.02
6144;BME280;3103;49.492;8.474;2023-12-20T12:55:22;100749.09;;;7.66;74.90
6144;BME280;3103;49.492;8.474;2023-12-20T12:57:49;100748.44;;;7.71;74.29
6144;BME280;3103;49.492;8.474;2023-12-20T13:00:16;100744.50;;;7.80;74.46
6144;BME280;3103;49.492;8.474;2023-12-20T13:02:43;100753.63;;;7.66;73.96
6144;BME280;3103;49.492;8.474;2023-12-20T13:05:09;100746.84;;;7.57;74.05
6144;BME280;3103;49.492;8.474;2023-12-20T13:07:36;100734.50;;;7.62;74.30
6144;BME280;3103;49.492;8.474;2023-12-20T13:10:04;100722.94;;;7.68;74.63
6144;BME280;3103;49.492;8.474;2023-12-20T13:12:32;100723.34;;;7.72;75.08
6144;BME280;3103;49.492;8.474;2023-12-20T13:14:59;100733.06;;;7.60;76.41
6144;BME280;3103;49.492;8.474;2023-12-20T13:17:29;100718.63;;;7.67;75.98
6144;BME280;3103;49.492;8.474;2023-12-20T13:19:58;100713.34;;;7.61;76.46
6144;BME280;3103;49.492;8.474;2023-12-20T13:22:26;100688.84;;;7.57;75.91
6144;BME280;3103;49.492;8.474;2023-12-20T13:24:53;100666.31;;;7.47;76.82
6144;BME280;3103;49.492;8.474;2023-12-20T13:27:20;100670.78;;;7.53;76.73